Time;durP1;ratioP1;P1;durP2;ratioP2;P2;SDS_P1;SDS_P2;PMS_P1;PMS_P2;Temp;Humidity;BMP_temperature;BMP_pressure;BME280_temperature;BME280_humidity;BME280_pressure;Samples;Min_cycle;Max_cycle;Signal;HPM_P1;HPM_P2
2022/12/30 00:00:46;;;;;;;23.13;3.20;;;5.80;99.90;;;;;;5092819;28;20104;-56
2022/12/30 00:03:12;;;;;;;22.48;4.13;;;5.80;99.90;;;;;;5091543;28;20492;-56
2022/12/30 00:05:38;;;;;;;19.70;3.75;;;5.80;99.90;;;;;;5093127;28;20039;-57
2022/12/30 00:08:45;;;;;;;22.48;3.17;;;5.80;99.90;;;;;;5092686;28;20040;-57
2022/12/30 00:10:50;;;;;;;25.38;3.60;;;6.00;99.90;;;;;;5093441;28;20527;-57
2022/12/30 00:35:18;;;;;;;29.75;6.07;;;5.70;99.90;;;;;;5094391;28;20048;-57
2022/12/30 00:37:44;;;;;;;22.83;3.63;;;5.70;99.90;;;;;;5092378;28;20220;-57
2022/12/30 00:40:10;;;;;;;23.20;5.10;;;5.80;99.90;;;;;;5093775;28;20071;-57
2022/12/30 00:45:23;;;;;;;24.02;3.65;;;5.60;99.90;;;;;;5095123;28;20112;-58
2022/12/30 00:47:49;;;;;;;28.20;4.55;;;5.80;99.90;;;;;;5097647;27;20054;-56
2022/12/30 00:58:28;;;;;;;20.38;2.90;;;5.70;99.90;;;;;;5098053;27;20491;-56
2022/12/30 01:00:55;;;;;;;18.98;3.13;;;5.70;99.90;;;;;;5097343;27;20046;-56
2022/12/30 01:03:20;;;;;;;23.00;3.70;;;5.80;99.90;;;;;;5097404;27;20150;-57
2022/12/30 01:05:46;;;;;;;26.00;3.25;;;5.60;99.90;;;;;;5098280;27;20032;-57
2022/12/30 01:08:12;;;;;;;23.52;4.68;;;;;;;;;;5097465;27;20039;-58
2022/12/30 01:10:39;;;;;;;21.70;3.35;;;5.60;99.90;;;;;;5094625;27;20059;-57
2022/12/30 01:13:05;;;;;;;20.40;3.80;;;5.60;99.90;;;;;;5096364;27;20062;-56
2022/12/30 01:15:31;;;;;;;21.73;3.00;;;5.50;99.90;;;;;;5095881;28;20051;-56
2022/12/30 01:17:57;;;;;;;22.65;3.42;;;5.60;99.90;;;;;;5096067;27;20562;-57
2022/12/30 01:20:22;;;;;;;23.92;3.20;;;5.60;99.90;;;;;;5093358;27;20096;-57
2022/12/30 01:22:48;;;;;;;31.92;3.75;;;;;;;;;;5095638;27;20627;-57
2022/12/30 01:25:14;;;;;;;30.63;4.00;;;;;;;;;;5097460;27;20038;-56
2022/12/30 01:27:40;;;;;;;23.38;4.18;;;5.60;99.90;;;;;;5095299;27;20040;-57
2022/12/30 01:30:07;;;;;;;23.15;3.45;;;5.50;99.90;;;;;;5093556;27;20199;-56
2022/12/30 01:32:35;;;;;;;19.73;3.10;;;5.60;99.90;;;;;;5095663;27;20530;-57
2022/12/30 01:35:00;;;;;;;21.20;4.28;;;5.50;99.90;;;;;;5095583;27;20408;-57
2022/12/30 01:37:26;;;;;;;22.60;2.85;;;;;;;;;;5094585;28;20036;-56
2022/12/30 01:39:53;;;;;;;22.00;3.28;;;;;;;;;;5094988;27;20054;-57
2022/12/30 01:42:21;;;;;;;23.02;4.05;;;5.30;99.90;;;;;;5094759;27;20047;-57
2022/12/30 01:44:52;;;;;;;26.02;4.18;;;5.30;99.90;;;;;;5096491;27;20372;-56
2022/12/30 01:47:23;;;;;;;22.23;3.53;;;5.20;99.90;;;;;;5095215;27;20043;-56
2022/12/30 01:49:52;;;;;;;35.95;4.28;;;6.90;99.90;;;;;;5095561;27;20043;-57
2022/12/30 01:52:23;;;;;;;25.17;3.60;;;5.20;99.90;;;;;;5095612;27;20051;-56
2022/12/30 01:54:50;;;;;;;27.63;4.10;;;5.10;99.90;;;;;;5095855;27;20040;-56
2022/12/30 01:57:16;;;;;;;22.23;4.32;;;5.20;99.90;;;;;;5093591;28;20824;-57
2022/12/30 01:59:43;;;;;;;26.55;4.03;;;;;;;;;;5094423;27;20039;-56
2022/12/30 02:02:09;;;;;;;22.55;4.25;;;;;;;;;;5094803;27;20050;-56
2022/12/30 02:04:34;;;;;;;25.00;3.95;;;5.20;99.90;;;;;;5095138;27;20048;-56
2022/12/30 02:07:22;;;;;;;22.00;3.42;;;5.30;99.90;;;;;;5094760;27;20104;-56
2022/12/30 02:09:50;;;;;;;32.33;5.20;;;5.30;99.90;;;;;;5094604;28;20956;-56
2022/12/30 02:12:15;;;;;;;33.13;4.75;;;5.20;99.90;;;;;;5096229;28;20094;-56
2022/12/30 02:14:43;;;;;;;23.98;3.40;;;5.40;99.90;;;;;;5092711;28;20504;-58
2022/12/30 02:17:09;;;;;;;26.80;3.58;;;5.30;99.90;;;;;;5095372;28;20032;-57
2022/12/30 02:19:35;;;;;;;29.83;5.18;;;;;;;;;;5095633;27;20400;-57
2022/12/30 02:22:37;;;;;;;28.38;5.63;;;6.80;99.90;;;;;;5096709;27;20701;-57
2022/12/30 02:25:37;;;;;;;17.88;3.28;;;5.50;99.90;;;;;;5063238;28;20108;-56
2022/12/30 02:28:41;;;;;;;28.67;3.88;;;5.40;99.90;;;;;;5092397;27;20056;-57
2022/12/30 02:31:29;;;;;;;23.77;4.32;;;5.30;99.90;;;;;;5095413;27;20047;-57
2022/12/30 02:34:17;;;;;;;27.60;4.53;;;5.50;99.90;;;;;;5094848;27;20051;-57
2022/12/30 02:37:00;;;;;;;25.17;3.35;;;5.30;99.90;;;;;;5095074;27;20123;-56
2022/12/30 02:39:50;;;;;;;26.67;4.15;;;5.40;99.90;;;;;;5093815;27;20446;-57
2022/12/30 02:45:39;;;;;;;33.03;4.00;;;5.40;99.90;;;;;;5094675;27;20047;-57
2022/12/30 02:48:27;;;;;;;21.17;3.58;;;5.50;99.90;;;;;;5093226;27;20126;-57
2022/12/30 02:53:41;;;;;;;28.08;4.22;;;5.50;99.90;;;;;;5093540;28;20051;-57
2022/12/30 02:56:08;;;;;;;24.13;3.50;;;5.50;99.90;;;;;;5094375;28;20865;-56
2022/12/30 02:58:36;;;;;;;21.98;3.30;;;5.30;99.90;;;;;;5094433;27;20527;-57
2022/12/30 03:04:26;;;;;;;27.17;3.83;;;5.40;99.90;;;;;;5094086;28;20039;-56
2022/12/30 03:07:46;;;;;;;21.63;3.80;;;5.30;99.90;;;;;;5095490;27;20036;-57
2022/12/30 03:13:19;;;;;;;24.02;3.47;;;5.40;99.90;;;;;;5093430;28;20754;-56
2022/12/30 03:16:26;;;;;;;20.95;3.00;;;5.30;99.90;;;;;;5092962;27;20035;-57
2022/12/30 03:18:54;;;;;;;20.08;3.33;;;3.30;99.90;;;;;;5083720;28;20065;-58
2022/12/30 03:21:24;;;;;;;26.75;2.78;;;5.20;99.90;;;;;;5094368;28;20567;-56
2022/12/30 03:29:26;;;;;;;22.58;3.05;;;5.10;99.90;;;;;;5093326;27;20087;-56
2022/12/30 03:31:54;;;;;;;20.63;3.63;;;5.10;99.90;;;;;;5092557;27;20043;-57
2022/12/30 03:34:20;;;;;;;26.13;3.90;;;5.10;99.90;;;;;;5094253;28;20058;-57
2022/12/30 03:36:50;;;;;;;29.73;3.40;;;5.10;99.90;;;;;;5094644;27;20126;-57
2022/12/30 03:39:28;;;;;;;25.25;4.03;;;4.90;99.90;;;;;;5094118;28;20253;-57
2022/12/30 03:41:54;;;;;;;20.05;3.42;;;;;;;;;;5094719;27;20578;-56
2022/12/30 03:44:21;;;;;;;19.58;3.20;;;5.00;99.90;;;;;;5093519;28;20039;-56
2022/12/30 03:46:48;;;;;;;19.40;3.35;;;4.90;99.90;;;;;;5093729;28;20039;-58
2022/12/30 03:49:14;;;;;;;18.08;3.33;;;4.80;99.90;;;;;;5093615;28;20057;-56
2022/12/30 03:51:40;;;;;;;29.50;4.18;;;4.70;99.90;;;;;;5094220;28;20382;-57
2022/12/30 03:54:06;;;;;;;23.30;4.30;;;4.70;99.90;;;;;;5094648;28;20043;-57
2022/12/30 03:56:32;;;;;;;25.20;4.22;;;4.80;99.90;;;;;;5091782;28;20058;-57
2022/12/30 03:58:57;;;;;;;21.25;3.83;;;4.80;99.90;;;;;;5093603;28;20035;-56
2022/12/30 04:01:23;;;;;;;24.88;4.03;;;;;;;;;;5092830;28;20035;-56
2022/12/30 04:03:50;;;;;;;21.50;4.05;;;;;;;;;;5093065;27;20044;-57
2022/12/30 04:06:16;;;;;;;24.75;5.78;;;;;;;;;;5093621;28;20193;-57
2022/12/30 04:08:42;;;;;;;36.50;5.38;;;;;;;;;;5091109;28;20039;-57
2022/12/30 04:11:08;;;;;;;22.55;3.70;;;;;;;;;;5091305;28;20104;-57
2022/12/30 04:13:34;;;;;;;17.73;3.42;;;;;;;;;;5092564;28;20531;-56
2022/12/30 04:16:00;;;;;;;21.58;4.45;;;;;;;;;;5091601;28;20036;-56
2022/12/30 04:18:26;;;;;;;25.33;4.60;;;4.80;99.90;;;;;;5094636;28;20051;-57
2022/12/30 04:20:52;;;;;;;26.52;4.68;;;;;;;;;;5093929;27;20032;-56
2022/12/30 04:23:18;;;;;;;26.80;4.47;;;;;;;;;;5097840;27;20065;-56
2022/12/30 04:25:44;;;;;;;25.05;3.95;;;4.70;99.90;;;;;;5095550;28;20057;-56
2022/12/30 04:28:10;;;;;;;20.98;4.15;;;4.80;99.90;;;;;;5097440;27;20059;-57
2022/12/30 04:30:36;;;;;;;20.88;5.05;;;5.00;99.90;;;;;;5096422;27;20031;-56
2022/12/30 04:33:02;;;;;;;17.88;3.67;;;5.00;99.90;;;;;;5096318;27;20096;-57
2022/12/30 04:35:28;;;;;;;26.17;3.92;;;;;;;;;;5096539;27;20083;-57
2022/12/30 04:37:54;;;;;;;24.23;4.30;;;;;;;;;;5097211;27;20047;-57
2022/12/30 04:40:20;;;;;;;24.05;4.43;;;;;;;;;;5096517;27;20040;-57
2022/12/30 04:42:46;;;;;;;19.98;3.47;;;;;;;;;;5097887;27;20035;-56
2022/12/30 04:45:12;;;;;;;20.98;3.63;;;;;;;;;;5096270;27;20591;-59
2022/12/30 04:47:38;;;;;;;25.00;3.85;;;;;;;;;;5096453;27;20436;-58
2022/12/30 04:50:05;;;;;;;21.08;4.28;;;;;;;;;;5097042;27;20047;-57
2022/12/30 04:52:31;;;;;;;24.05;3.40;;;;;;;;;;5097379;27;20039;-56
2022/12/30 04:54:57;;;;;;;20.85;3.60;;;;;;;;;;5097868;28;20046;-54
2022/12/30 04:57:23;;;;;;;25.20;4.18;;;;;;;;;;5098799;27;20048;-54
2022/12/30 04:59:49;;;;;;;16.50;3.95;;;4.60;99.90;;;;;;5097315;28;20430;-55
2022/12/30 05:02:14;;;;;;;19.73;3.42;;;4.60;99.90;;;;;;5098492;27;20043;-56
2022/12/30 05:04:41;;;;;;;16.58;3.42;;;;;;;;;;5098358;27;20922;-55
2022/12/30 05:07:07;;;;;;;17.52;3.38;;;;;;;;;;5098361;27;20043;-54
2022/12/30 05:09:33;;;;;;;13.20;3.47;;;;;;;;;;5097264;27;20261;-56
2022/12/30 05:11:59;;;;;;;21.98;3.50;;;;;;;;;;5097143;27;20039;-55
2022/12/30 05:14:25;;;;;;;23.48;4.93;;;;;;;;;;5096640;27;20051;-55
2022/12/30 05:16:51;;;;;;;21.02;4.03;;;;;;;;;;5096846;27;20063;-55
2022/12/30 05:19:17;;;;;;;22.85;4.82;;;5.10;99.90;;;;;;5095685;27;20044;-55
2022/12/30 05:21:43;;;;;;;21.98;5.68;;;;;;;;;;5095238;27;20050;-56
2022/12/30 05:26:54;;;;;;;18.08;6.80;;;;;;;;;;5096770;27;20051;-55
2022/12/30 05:29:20;;;;;;;26.85;7.35;;;;;;;;;;5095586;27;20381;-55
2022/12/30 05:31:46;;;;;;;28.73;8.75;;;;;;;;;;5093193;27;20055;-56
2022/12/30 05:34:12;;;;;;;20.38;7.68;;;;;;;;;;5096005;27;20050;-56
2022/12/30 05:36:39;;;;;;;20.42;6.57;;;;;;;;;;5095921;27;20528;-55
2022/12/30 05:39:05;;;;;;;32.58;9.20;;;5.40;99.90;;;;;;5095384;27;20092;-55
2022/12/30 05:41:31;;;;;;;26.20;7.85;;;5.30;99.90;;;;;;5095359;28;20141;-54
2022/12/30 05:43:57;;;;;;;22.58;6.78;;;;;;;;;;5095890;27;20044;-53
2022/12/30 05:46:23;;;;;;;30.45;7.78;;;;;;;;;;5094812;27;20036;-56
2022/12/30 05:48:49;;;;;;;17.80;5.85;;;;;;;;;;5095519;27;20528;-57
2022/12/30 05:51:16;;;;;;;20.30;6.03;;;;;;;;;;5096469;27;20264;-56
2022/12/30 05:53:41;;;;;;;23.67;6.32;;;5.30;99.90;;;;;;5095089;27;20043;-56
2022/12/30 05:56:07;;;;;;;29.80;6.32;;;;;;;;;;5094792;28;20054;-56
2022/12/30 05:58:34;;;;;;;17.75;5.50;;;;;;;;;;5095007;27;20827;-55
2022/12/30 06:01:00;;;;;;;21.60;4.93;;;;;;;;;;5094604;27;20039;-55
2022/12/30 06:03:28;;;;;;;21.23;6.40;;;;;;;;;;5094264;28;20050;-55
2022/12/30 06:05:58;;;;;;;19.85;4.90;;;5.00;99.90;;;;;;5095909;28;20142;-56
2022/12/30 06:08:25;;;;;;;17.35;5.07;;;;;;;;;;5096563;28;20051;-55
2022/12/30 06:10:51;;;;;;;17.45;4.60;;;;;;;;;;5095825;27;20043;-56
2022/12/30 06:13:17;;;;;;;18.67;5.07;;;;;;;;;;5097127;27;20066;-55
2022/12/30 06:15:43;;;;;;;11.45;4.30;;;;;;;;;;5096644;27;20039;-55
2022/12/30 06:18:09;;;;;;;18.73;5.07;;;;;;;;;;5096459;27;20131;-56
2022/12/30 06:20:35;;;;;;;24.50;4.55;;;;;;;;;;5093957;28;20032;-55
2022/12/30 06:23:01;;;;;;;16.02;4.10;;;;;;;;;;5095513;27;20399;-56
2022/12/30 06:25:27;;;;;;;17.95;4.68;;;4.70;99.90;;;;;;5096850;28;20074;-56
2022/12/30 06:27:53;;;;;;;17.05;3.58;;;4.40;99.90;;;;;;5095779;27;20044;-56
2022/12/30 06:30:18;;;;;;;16.48;5.03;;;4.40;99.90;;;;;;5095534;28;20086;-56
2022/12/30 06:32:44;;;;;;;15.85;3.88;;;;;;;;;;5095336;27;20044;-56
2022/12/30 06:35:11;;;;;;;16.10;4.47;;;4.40;99.90;;;;;;5096250;27;20070;-54
2022/12/30 06:37:37;;;;;;;16.05;3.85;;;;;;;;;;5096333;27;20039;-56
2022/12/30 06:40:04;;;;;;;21.92;5.50;;;4.20;99.90;;;;;;5095173;27;20036;-55
2022/12/30 06:42:30;;;;;;;19.50;4.07;;;4.20;99.90;;;;;;5094625;27;20502;-55
2022/12/30 06:44:56;;;;;;;19.88;5.05;;;;;;;;;;5094484;27;20073;-56
2022/12/30 06:47:22;;;;;;;23.80;4.93;;;;;;;;;;5093654;27;20651;-55
2022/12/30 06:49:48;;;;;;;17.42;3.80;;;;;;;;;;5093744;27;20195;-56
2022/12/30 06:52:14;;;;;;;18.27;4.00;;;;;;;;;;5093219;27;20051;-55
2022/12/30 06:54:41;;;;;;;20.65;4.60;;;;;;;;;;5094259;27;20039;-54
2022/12/30 06:57:07;;;;;;;19.13;4.25;;;;;;;;;;5093819;27;20043;-55
2022/12/30 06:59:33;;;;;;;22.45;4.28;;;;;;;;;;5093869;28;20454;-56
2022/12/30 07:01:59;;;;;;;24.23;4.25;;;;;;;;;;5093938;28;20043;-56
2022/12/30 07:04:25;;;;;;;22.00;4.00;;;;;;;;;;5095526;27;20176;-55
2022/12/30 07:06:51;;;;;;;20.90;3.88;;;;;;;;;;5094200;28;20477;-56
2022/12/30 07:09:17;;;;;;;23.05;4.65;;;;;;;;;;5093704;27;20067;-56
2022/12/30 07:11:43;;;;;;;20.67;4.03;;;;;;;;;;5093604;27;20043;-56
2022/12/30 07:14:10;;;;;;;16.40;3.63;;;;;;;;;;5093923;27;20158;-56
2022/12/30 07:16:36;;;;;;;21.75;4.18;;;;;;;;;;5092647;27;20032;-56
2022/12/30 07:19:02;;;;;;;21.80;4.00;;;;;;;;;;5093337;28;20047;-56
2022/12/30 07:21:28;;;;;;;20.90;4.63;;;;;;;;;;5093869;27;20542;-56
2022/12/30 07:23:54;;;;;;;14.77;3.65;;;;;;;;;;5093024;28;20070;-56
2022/12/30 07:26:20;;;;;;;16.48;3.85;;;4.00;99.90;;;;;;5092868;28;20473;-55
2022/12/30 07:28:46;;;;;;;14.98;3.88;;;;;;;;;;5093650;27;20612;-56
2022/12/30 07:31:12;;;;;;;20.60;3.70;;;;;;;;;;5092368;27;20663;-55
2022/12/30 07:33:39;;;;;;;22.48;3.72;;;;;;;;;;5093214;28;20040;-56
2022/12/30 07:36:05;;;;;;;18.58;3.38;;;;;;;;;;5093996;27;20043;-56
2022/12/30 07:38:30;;;;;;;18.15;3.95;;;3.90;99.90;;;;;;5095483;28;20381;-56
2022/12/30 07:40:57;;;;;;;18.35;3.35;;;;;;;;;;5093363;27;20127;-56
2022/12/30 07:43:23;;;;;;;26.33;4.25;;;;;;;;;;5093742;27;20039;-56
2022/12/30 07:45:48;;;;;;;19.77;3.50;;;3.90;99.90;;;;;;5093356;28;20048;-55
2022/12/30 07:48:15;;;;;;;19.95;3.55;;;;;;;;;;5094436;27;20051;-56
2022/12/30 07:50:41;;;;;;;18.25;3.38;;;;;;;;;;5092957;28;20758;-56
2022/12/30 07:53:07;;;;;;;17.85;4.03;;;;;;;;;;5094302;28;20081;-56
2022/12/30 07:55:34;;;;;;;24.50;3.53;;;;;;;;;;5091795;27;20052;-56
2022/12/30 07:58:00;;;;;;;25.25;4.25;;;;;;;;;;5092008;27;20407;-56
2022/12/30 08:00:26;;;;;;;16.08;3.03;;;;;;;;;;5092748;28;20133;-56
2022/12/30 08:02:52;;;;;;;21.30;3.70;;;;;;;;;;5092689;28;20047;-56
2022/12/30 08:05:19;;;;;;;18.73;3.45;;;;;;;;;;5091906;27;20043;-56
2022/12/30 08:07:45;;;;;;;17.88;2.97;;;;;;;;;;5090951;28;20100;-56
2022/12/30 08:10:11;;;;;;;12.70;3.47;;;;;;;;;;5091798;28;20035;-56
2022/12/30 08:12:37;;;;;;;18.25;4.18;;;;;;;;;;5092970;28;20044;-55
2022/12/30 08:15:03;;;;;;;25.80;4.47;;;4.20;99.90;;;;;;5092012;28;20247;-56
2022/12/30 08:17:30;;;;;;;22.17;3.30;;;;;;;;;;5091598;28;20096;-56
2022/12/30 08:19:56;;;;;;;14.48;3.33;;;;;;;;;;5091794;28;20096;-56
2022/12/30 08:22:22;;;;;;;17.50;2.92;;;;;;;;;;5091967;28;20036;-56
2022/12/30 08:24:48;;;;;;;24.23;3.13;;;;;;;;;;5091455;28;20476;-56
2022/12/30 08:27:14;;;;;;;18.90;4.18;;;;;;;;;;5092224;28;20078;-55
2022/12/30 08:29:40;;;;;;;15.27;3.55;;;;;;;;;;5093878;28;20042;-56
2022/12/30 08:32:06;;;;;;;16.60;3.13;;;;;;;;;;5092206;28;20044;-56
2022/12/30 08:34:32;;;;;;;16.23;3.03;;;;;;;;;;5092364;28;20047;-54
2022/12/30 08:36:58;;;;;;;21.45;3.53;;;;;;;;;;5092165;28;20545;-56
2022/12/30 08:39:25;;;;;;;24.58;4.93;;;;;;;;;;5093373;28;20559;-56
2022/12/30 08:41:51;;;;;;;21.52;3.90;;;;;;;;;;5092269;28;20126;-56
2022/12/30 08:44:17;;;;;;;22.88;3.67;;;;;;;;;;5092355;28;20134;-56
2022/12/30 08:46:43;;;;;;;18.50;3.15;;;;;;;;;;5092128;28;20419;-56
2022/12/30 08:49:11;;;;;;;20.27;3.85;;;4.40;99.90;;;;;;5094862;28;20039;-56
2022/12/30 08:51:38;;;;;;;19.15;3.13;;;4.40;99.90;;;;;;5095010;28;20043;-53
2022/12/30 08:54:04;;;;;;;21.52;3.22;;;;;;;;;;5093997;28;20054;-53
2022/12/30 08:56:32;;;;;;;22.88;5.38;;;4.40;99.90;;;;;;5094346;28;20046;-55
2022/12/30 08:58:58;;;;;;;14.45;3.67;;;;;;;;;;5094887;28;20052;-58
2022/12/30 09:01:36;;;;;;;19.40;3.45;;;5.20;99.90;;;;;;5094948;28;20039;-57
2022/12/30 09:04:03;;;;;;;14.50;3.17;;;;;;;;;;5095165;28;20160;-56
2022/12/30 09:06:31;;;;;;;19.65;4.28;;;4.60;99.90;;;;;;5096142;28;20491;-56
2022/12/30 09:08:58;;;;;;;14.35;3.50;;;4.60;99.90;;;;;;5098259;27;20101;-55
2022/12/30 09:11:28;;;;;;;24.38;3.63;;;4.70;99.90;;;;;;5097653;27;20236;-56
2022/12/30 09:13:55;;;;;;;18.02;3.35;;;;;;;;;;5098168;27;20039;-55
2022/12/30 09:16:23;;;;;;;11.73;2.90;;;4.70;99.90;;;;;;5097082;27;20034;-56
2022/12/30 09:18:50;;;;;;;16.10;3.28;;;4.90;99.90;;;;;;5096335;28;20089;-56
2022/12/30 09:21:16;;;;;;;17.95;3.88;;;;;;;;;;5096751;27;20424;-55
2022/12/30 09:23:42;;;;;;;14.75;3.25;;;4.70;99.90;;;;;;5094420;27;20039;-55
2022/12/30 09:26:08;;;;;;;18.08;3.25;;;;;;;;;;5094804;27;20572;-55
2022/12/30 09:28:35;;;;;;;14.70;2.97;;;4.30;99.90;;;;;;5095301;27;20043;-55
2022/12/30 09:31:01;;;;;;;16.77;3.25;;;;;;;;;;5095480;27;20062;-56
2022/12/30 09:33:27;;;;;;;12.18;2.97;;;;;;;;;;5095510;27;20048;-56
2022/12/30 09:35:53;;;;;;;18.83;3.25;;;;;;;;;;5095654;27;20440;-56
2022/12/30 09:38:19;;;;;;;16.88;2.80;;;;;;;;;;5097996;27;20126;-55
2022/12/30 09:40:45;;;;;;;17.23;2.33;;;;;;;;;;5096254;27;20039;-54
2022/12/30 09:43:28;;;;;;;14.02;3.13;;;5.10;99.90;;;;;;5096234;27;20039;-55
2022/12/30 09:46:12;;;;;;;;;;;5.10;99.90;;;;;;5095224;27;20372;-56
2022/12/30 09:48:46;;;;;;;12.73;2.88;;;5.20;99.90;;;;;;5096463;27;19932;-56
2022/12/30 09:51:17;;;;;;;19.48;3.28;;;5.30;99.90;;;;;;5095264;28;21077;-56
2022/12/30 09:53:59;;;;;;;17.60;3.33;;;5.10;99.90;;;;;;5095338;27;20048;-56
2022/12/30 09:56:39;;;;;;;10.38;2.58;;;5.40;99.90;;;;;;5094630;28;20031;-55
2022/12/30 09:59:29;;;;;;;12.73;3.10;;;5.40;99.90;;;;;;5094484;27;20108;-54
2022/12/30 10:02:04;;;;;;;14.85;4.47;;;5.40;99.90;;;;;;5088394;27;20139;-55
2022/12/30 10:04:36;;;;;;;12.05;2.58;;;5.50;99.90;;;;;;5094476;28;20051;-56
2022/12/30 10:07:13;;;;;;;20.88;3.35;;;5.50;99.90;;;;;;5094319;27;20050;-55
2022/12/30 10:09:54;;;;;;;13.80;2.80;;;5.50;99.90;;;;;;5095508;28;20066;-56
2022/12/30 10:12:32;;;;;;;12.45;2.88;;;5.60;99.90;;;;;;5094779;27;20047;-55
2022/12/30 10:15:15;;;;;;;12.80;3.42;;;5.30;99.90;;;;;;5094799;28;20044;-56
2022/12/30 10:18:05;;;;;;;13.32;2.67;;;5.60;99.90;;;;;;5094210;27;20032;-54
2022/12/30 10:21:09;;;;;;;19.10;3.45;;;5.60;99.90;;;;;;5095341;28;20039;-56
2022/12/30 10:24:08;;;;;;;12.65;2.85;;;5.80;99.90;;;;;;5096117;27;20070;-56
2022/12/30 10:26:49;;;;;;;16.60;3.75;;;5.70;99.90;;;;;;5095805;27;20050;-56
2022/12/30 10:29:23;;;;;;;15.32;3.17;;;5.80;99.90;;;;;;5096924;27;20531;-56
2022/12/30 10:31:50;;;;;;;12.48;2.72;;;5.80;99.90;;;;;;5095268;27;20043;-56
2022/12/30 10:34:28;;;;;;;10.23;3.45;;;6.10;99.90;;;;;;5097217;27;20047;-55
2022/12/30 10:37:10;;;;;;;13.40;2.67;;;6.10;99.90;;;;;;5094694;28;20047;-55
2022/12/30 10:39:46;;;;;;;12.10;2.83;;;6.00;99.90;;;;;;5097747;27;20052;-56
2022/12/30 10:42:26;;;;;;;10.68;2.35;;;6.10;99.90;;;;;;5095647;27;20042;-56
2022/12/30 10:45:12;;;;;;;12.48;3.95;;;6.20;99.90;;;;;;5095812;28;20040;-56
2022/12/30 10:48:05;;;;;;;9.70;2.38;;;6.20;99.90;;;;;;5095590;28;20051;-56
2022/12/30 10:50:41;;;;;;;13.93;2.90;;;6.30;99.90;;;;;;5092108;28;20437;-56
2022/12/30 10:53:24;;;;;;;12.73;2.67;;;6.40;99.90;;;;;;5094659;27;20759;-56
2022/12/30 10:56:02;;;;;;;14.15;2.63;;;6.40;99.90;;;;;;5093278;28;20036;-56
2022/12/30 10:58:43;;;;;;;10.85;2.20;;;6.20;99.90;;;;;;5093634;28;20062;-56
2022/12/30 11:01:18;;;;;;;12.82;2.97;;;6.30;99.90;;;;;;5093992;27;20578;-56
2022/12/30 11:03:58;;;;;;;11.77;2.50;;;6.30;99.90;;;;;;5093876;27;20048;-56
2022/12/30 11:06:30;;;;;;;8.95;2.05;;;6.30;99.90;;;;;;5094621;27;20039;-56
2022/12/30 11:09:21;;;;;;;6.82;2.20;;;6.20;99.90;;;;;;5095302;27;20045;-56
2022/12/30 11:14:42;;;;;;;8.82;1.92;;;6.20;99.90;;;;;;5094534;27;20066;-56
2022/12/30 11:17:54;;;;;;;12.38;2.28;;;6.20;99.90;;;;;;5093811;27;20048;-56
2022/12/30 11:20:20;;;;;;;7.85;1.77;;;;;;;;;;5049594;28;20214;-56
2022/12/30 11:22:50;;;;;;;10.35;2.25;;;6.40;99.90;;;;;;5050491;28;20056;-56
2022/12/30 11:25:27;;;;;;;9.73;2.63;;;6.40;99.90;;;;;;5072085;28;20051;-56
2022/12/30 11:28:13;;;;;;;7.65;1.65;;;6.40;99.90;;;;;;5094252;27;20411;-57
2022/12/30 11:30:53;;;;;;;9.05;1.85;;;6.40;99.90;;;;;;5092598;27;20075;-56
2022/12/30 11:33:27;;;;;;;7.18;1.65;;;6.40;99.90;;;;;;5092405;28;20035;-57
2022/12/30 11:35:53;;;;;;;9.73;1.90;;;6.60;99.90;;;;;;5093080;27;20035;-56
2022/12/30 11:38:35;;;;;;;11.57;2.47;;;6.50;99.90;;;;;;5095407;28;20039;-56
2022/12/30 11:41:16;;;;;;;8.52;1.73;;;6.70;99.90;;;;;;5093802;27;20040;-55
2022/12/30 11:43:47;;;;;;;10.63;1.65;;;6.70;99.90;;;;;;5093765;28;20128;-56
2022/12/30 11:46:22;;;;;;;9.35;2.03;;;6.70;99.90;;;;;;5094691;28;20052;-56
2022/12/30 11:49:03;;;;;;;9.85;2.33;;;6.80;99.90;;;;;;5093941;28;20050;-56
2022/12/30 11:51:32;;;;;;;8.43;1.65;;;6.80;99.90;;;;;;5094479;27;20079;-56
2022/12/30 11:54:06;;;;;;;7.10;2.20;;;6.80;99.90;;;;;;5094811;27;20071;-56
2022/12/30 11:56:33;;;;;;;9.57;1.67;;;6.90;99.90;;;;;;5094721;27;20049;-55
2022/12/30 11:59:13;;;;;;;8.85;1.75;;;6.90;99.90;;;;;;5093107;28;20040;-56
2022/12/30 12:01:48;;;;;;;8.35;1.52;;;6.70;99.90;;;;;;5092241;28;20055;-55
2022/12/30 12:04:31;;;;;;;10.43;1.73;;;6.80;99.90;;;;;;5093388;28;20142;-57
2022/12/30 12:06:57;;;;;;;11.73;1.77;;;;;;;;;;5094308;28;20039;-55
2022/12/30 12:09:37;;;;;;;13.63;2.47;;;6.80;99.90;;;;;;5093513;28;20436;-55
2022/12/30 12:12:10;;;;;;;7.43;1.70;;;7.00;99.90;;;;;;5089978;28;21208;-54
2022/12/30 12:14:52;;;;;;;6.32;1.42;;;7.00;99.90;;;;;;5092955;28;20136;-56
2022/12/30 12:17:25;;;;;;;6.07;1.25;;;6.80;99.90;;;;;;5090938;28;20113;-56
2022/12/30 12:20:03;;;;;;;7.93;1.65;;;6.90;99.90;;;;;;5092983;28;20075;-56
2022/12/30 12:22:50;;;;;;;7.22;1.85;;;6.90;99.90;;;;;;5091865;28;20047;-54
2022/12/30 12:25:30;;;;;;;6.72;1.38;;;6.90;99.90;;;;;;5092938;28;20046;-55
2022/12/30 12:27:56;;;;;;;11.98;1.73;;;6.90;99.90;;;;;;5091891;28;20091;-54
2022/12/30 12:30:22;;;;;;;8.73;1.70;;;5.20;99.90;;;;;;5092171;28;22569;-56
2022/12/30 12:33:00;;;;;;;8.85;1.45;;;6.90;99.90;;;;;;5092820;28;20088;-55
2022/12/30 12:35:31;;;;;;;8.75;1.55;;;7.10;99.90;;;;;;5093547;28;20051;-56
2022/12/30 12:38:28;;;;;;;5.88;1.33;;;7.00;99.90;;;;;;5092949;28;20573;-56
2022/12/30 12:41:26;;;;;;;8.80;1.50;;;7.10;99.90;;;;;;5092501;28;20412;-56
2022/12/30 12:44:05;;;;;;;5.68;1.50;;;7.00;99.90;;;;;;5061434;28;20337;-56
2022/12/30 12:47:05;;;;;;;5.53;1.77;;;7.20;99.90;;;;;;5094820;27;20046;-55
2022/12/30 12:49:49;;;;;;;9.15;1.88;;;7.20;99.90;;;;;;5095169;27;20047;-56
2022/12/30 12:52:41;;;;;;;11.43;2.67;;;7.20;99.90;;;;;;5095716;27;20039;-56
2022/12/30 12:55:16;;;;;;;8.10;3.15;;;7.40;99.90;;;;;;5095807;27;20382;-56
2022/12/30 12:58:21;;;;;;;13.77;2.65;;;7.30;99.90;;;;;;5095968;27;20048;-55
2022/12/30 13:00:55;;;;;;;8.52;2.42;;;7.40;99.90;;;;;;5093897;27;20061;-56
2022/12/30 13:03:53;;;;;;;9.25;2.50;;;7.60;99.90;;;;;;5094836;27;20382;-55
2022/12/30 13:06:30;;;;;;;13.18;2.78;;;7.70;99.90;;;;;;5097179;28;20035;-56
2022/12/30 13:08:59;;;;;;;7.68;1.35;;;7.40;99.90;;;;;;5097135;27;20534;-56
2022/12/30 13:11:36;;;;;;;5.28;1.50;;;7.50;99.90;;;;;;5096711;27;20050;-56
2022/12/30 13:14:20;;;;;;;11.10;2.10;;;7.30;99.90;;;;;;5096647;27;20040;-56
2022/12/30 13:16:50;;;;;;;9.20;1.65;;;7.50;99.90;;;;;;5096542;27;20550;-56
2022/12/30 13:19:19;;;;;;;11.57;1.40;;;7.60;99.90;;;;;;5096702;28;20138;-56
2022/12/30 13:21:51;;;;;;;8.48;1.75;;;7.60;99.90;;;;;;5096669;27;20047;-56
2022/12/30 13:24:31;;;;;;;7.78;1.40;;;7.60;99.90;;;;;;5097000;27;20115;-55
2022/12/30 13:26:57;;;;;;;7.88;1.70;;;7.80;99.90;;;;;;5092772;27;20071;-55
2022/12/30 13:29:28;;;;;;;7.53;2.17;;;7.60;99.90;;;;;;5095947;27;21381;-56
2022/12/30 13:32:06;;;;;;;5.90;1.55;;;7.60;99.90;;;;;;5094024;28;20059;-57
2022/12/30 13:34:51;;;;;;;7.18;1.52;;;7.70;99.90;;;;;;5094556;27;20048;-57
2022/12/30 13:37:42;;;;;;;8.32;2.00;;;7.60;99.90;;;;;;5094194;28;20040;-56
2022/12/30 13:40:16;;;;;;;8.48;1.45;;;7.80;99.90;;;;;;5095200;27;20387;-56
2022/12/30 13:42:59;;;;;;;7.60;1.45;;;7.90;99.90;;;;;;5095364;27;20047;-56
2022/12/30 13:45:43;;;;;;;8.05;1.30;;;7.80;99.90;;;;;;5095565;28;20039;-56
2022/12/30 13:48:18;;;;;;;10.77;1.50;;;8.10;99.90;;;;;;5094008;27;20048;-56
2022/12/30 13:50:44;;;;;;;11.50;1.60;;;7.90;99.90;;;;;;5094525;27;20043;-56
2022/12/30 13:53:34;;;;;;;8.80;1.40;;;8.10;99.90;;;;;;5094546;27;20617;-55
2022/12/30 13:56:01;;;;;;;12.77;2.50;;;7.80;99.90;;;;;;5094944;27;20066;-56
2022/12/30 13:58:43;;;;;;;9.75;1.80;;;7.90;99.90;;;;;;5095124;27;20048;-56
2022/12/30 14:01:38;;;;;;;10.50;1.65;;;8.00;99.90;;;;;;5094242;27;20082;-57
2022/12/30 14:04:10;;;;;;;8.02;1.55;;;8.10;99.90;;;;;;5094165;27;20480;-56
2022/12/30 14:06:53;;;;;;;6.18;1.30;;;8.30;99.90;;;;;;5095133;27;20055;-57
2022/12/30 14:09:23;;;;;;;9.13;1.95;;;8.10;99.90;;;;;;5094210;27;20749;-57
2022/12/30 14:12:04;;;;;;;7.40;1.48;;;8.90;99.90;;;;;;5092301;28;20052;-56
2022/12/30 14:14:47;;;;;;;10.13;1.90;;;8.20;99.90;;;;;;5093647;28;20078;-56
2022/12/30 14:17:13;;;;;;;8.55;1.38;;;7.90;99.90;;;;;;5093158;27;20039;-56
2022/12/30 14:19:50;;;;;;;9.38;1.48;;;8.30;99.90;;;;;;5095115;27;20043;-55
2022/12/30 14:22:40;;;;;;;8.10;1.25;;;8.20;99.90;;;;;;5093440;27;20392;-56
2022/12/30 14:25:30;;;;;;;9.25;1.63;;;8.20;99.90;;;;;;5094560;28;20048;-55
2022/12/30 14:28:13;;;;;;;4.95;1.55;;;8.20;99.90;;;;;;5094913;27;20035;-56
2022/12/30 14:30:43;;;;;;;7.13;1.77;;;8.20;99.90;;;;;;5095364;28;20058;-56
2022/12/30 14:33:17;;;;;;;8.23;1.50;;;8.20;99.90;;;;;;5095990;27;20395;-56
2022/12/30 14:35:57;;;;;;;6.53;1.10;;;8.10;99.90;;;;;;5095489;27;20039;-55
2022/12/30 14:38:42;;;;;;;8.23;1.63;;;9.60;99.90;;;;;;5093778;28;20043;-56
2022/12/30 14:41:25;;;;;;;10.60;1.73;;;8.20;99.90;;;;;;5094713;27;20043;-56
2022/12/30 14:43:53;;;;;;;8.23;1.80;;;7.10;99.90;;;;;;5094024;27;20135;-56